Time;durP1;ratioP1;P1;durP2;ratioP2;P2;SDS_P1;SDS_P2;PMS_P1;PMS_P2;Temp;Humidity;BMP_temperature;BMP_pressure;BME280_temperature;BME280_humidity;BME280_pressure;Samples;Min_cycle;Max_cycle;Signal;HPM_P1;HPM_P2
2023/04/24 00:01:02;;;;;;;2.70;1.50;;;10.30;99.90;;;;;;514056;231;28222;-73
2023/04/24 00:03:03;;;;;;;3.60;1.77;;;10.40;99.90;;;;;;514008;231;28244;-73
2023/04/24 00:05:05;;;;;;;7.17;1.83;;;10.30;99.90;;;;;;513974;231;28265;-73
2023/04/24 00:07:06;;;;;;;3.10;1.50;;;10.30;99.90;;;;;;514033;231;28487;-73
2023/04/24 00:09:07;;;;;;;3.17;1.50;;;10.30;99.90;;;;;;514053;231;28393;-73
2023/04/24 00:11:09;;;;;;;3.33;2.03;;;10.30;99.90;;;;;;514010;231;27866;-73
2023/04/24 00:13:09;;;;;;;3.10;1.40;;;10.40;99.90;;;;;;513998;231;27934;-73
2023/04/24 00:15:11;;;;;;;4.23;1.70;;;10.40;99.90;;;;;;513977;231;27865;-72
2023/04/24 00:17:12;;;;;;;5.20;1.80;;;10.40;99.90;;;;;;513986;231;27923;-72
2023/04/24 00:19:13;;;;;;;1.60;1.50;;;10.40;99.90;;;;;;514033;231;27814;-74
2023/04/24 00:21:15;;;;;;;4.17;1.30;;;10.50;99.90;;;;;;514018;231;27899;-73
2023/04/24 00:23:16;;;;;;;2.40;1.70;;;10.40;99.90;;;;;;513938;231;27917;-73
2023/04/24 00:25:17;;;;;;;5.07;1.40;;;10.40;99.90;;;;;;513934;231;27907;-73
2023/04/24 00:27:18;;;;;;;1.10;1.10;;;10.40;99.90;;;;;;514009;231;27959;-73
2023/04/24 00:29:19;;;;;;;2.90;1.73;;;10.40;99.90;;;;;;514035;231;28433;-75
2023/04/24 00:31:21;;;;;;;4.27;2.00;;;10.50;99.90;;;;;;514024;231;28525;-73
2023/04/24 00:33:22;;;;;;;3.30;1.30;;;10.50;99.90;;;;;;513994;231;28826;-72
2023/04/24 00:35:23;;;;;;;2.50;1.60;;;10.50;99.90;;;;;;513960;231;27845;-73
2023/04/24 00:37:25;;;;;;;3.27;1.80;;;10.50;99.90;;;;;;514006;231;28046;-73
2023/04/24 00:39:26;;;;;;;2.50;1.70;;;10.40;99.90;;;;;;514034;231;28007;-74
2023/04/24 00:41:27;;;;;;;2.33;1.60;;;10.50;99.90;;;;;;514011;231;28026;-73
2023/04/24 00:43:28;;;;;;;2.03;1.40;;;9.90;99.90;;;;;;514027;231;28040;-73
2023/04/24 00:45:31;;;;;;;4.53;1.30;;;10.40;99.90;;;;;;513956;231;28154;-73
2023/04/24 00:47:31;;;;;;;5.10;2.00;;;10.50;99.90;;;;;;513947;231;27911;-73
2023/04/24 00:49:32;;;;;;;3.27;1.50;;;10.50;99.90;;;;;;514063;231;27939;-74
2023/04/24 00:51:34;;;;;;;4.57;1.67;;;10.50;99.90;;;;;;514081;231;27769;-73
2023/04/24 00:53:35;;;;;;;3.70;1.60;;;10.40;99.90;;;;;;514023;231;27821;-73
2023/04/24 00:55:37;;;;;;;4.50;1.77;;;10.50;99.90;;;;;;513927;231;28433;-73
2023/04/24 00:57:37;;;;;;;8.73;1.90;;;10.40;99.90;;;;;;513939;231;28506;-73
2023/04/24 00:59:40;;;;;;;4.40;1.53;;;10.40;99.90;;;;;;514047;231;28491;-73
2023/04/24 01:01:42;;;;;;;2.60;1.50;;;10.50;99.90;;;;;;513868;231;27889;-73
2023/04/24 01:03:41;;;;;;;1.30;1.20;;;10.50;99.90;;;;;;513852;231;27949;-74
2023/04/24 01:05:42;;;;;;;4.30;1.53;;;10.50;99.90;;;;;;513987;231;28060;-73
2023/04/24 01:07:45;;;;;;;4.63;1.70;;;10.40;99.90;;;;;;514017;231;28048;-74
2023/04/24 01:09:47;;;;;;;2.30;1.30;;;10.40;99.90;;;;;;513902;231;28027;-73
2023/04/24 01:11:46;;;;;;;2.67;1.47;;;10.40;99.90;;;;;;513855;231;27920;-73
2023/04/24 01:13:47;;;;;;;2.27;1.60;;;10.40;99.90;;;;;;514022;231;27960;-74
2023/04/24 01:15:48;;;;;;;2.20;1.50;;;10.10;99.90;;;;;;513973;231;27999;-73
2023/04/24 01:17:49;;;;;;;1.67;1.40;;;10.40;99.90;;;;;;514020;231;28091;-73
2023/04/24 01:19:53;;;;;;;3.87;1.60;;;10.40;99.90;;;;;;514006;231;28302;-73
2023/04/24 01:21:52;;;;;;;3.10;1.60;;;10.60;99.90;;;;;;513872;231;28571;-73
2023/04/24 01:23:53;;;;;;;2.87;1.77;;;10.40;99.90;;;;;;514041;231;28423;-74
2023/04/24 01:25:54;;;;;;;2.00;1.60;;;10.40;99.90;;;;;;513956;231;27885;-73
2023/04/24 01:27:56;;;;;;;2.70;1.27;;;10.30;99.90;;;;;;514016;231;27778;-73
2023/04/24 01:29:57;;;;;;;2.97;1.47;;;10.30;99.90;;;;;;514004;231;27926;-74
2023/04/24 01:31:58;;;;;;;5.23;1.60;;;10.30;99.90;;;;;;514059;231;27820;-73
2023/04/24 01:33:59;;;;;;;5.17;1.67;;;10.30;99.90;;;;;;514045;231;27849;-74
2023/04/24 01:36:01;;;;;;;2.97;1.70;;;10.30;99.90;;;;;;513988;231;27665;-73
2023/04/24 01:38:02;;;;;;;4.70;1.57;;;10.20;99.90;;;;;;514023;231;28260;-74
2023/04/24 01:40:03;;;;;;;3.33;1.50;;;10.20;99.90;;;;;;514016;231;27780;-73
2023/04/24 01:42:05;;;;;;;2.60;1.50;;;10.10;99.90;;;;;;514068;231;27988;-73
2023/04/24 01:44:06;;;;;;;2.20;1.60;;;9.80;99.90;;;;;;514072;231;28290;-74
2023/04/24 01:46:07;;;;;;;1.93;1.40;;;9.50;99.90;;;;;;513993;231;28149;-73
2023/04/24 01:48:08;;;;;;;1.83;1.70;;;9.30;99.90;;;;;;513961;231;28205;-73
2023/04/24 01:50:09;;;;;;;2.10;1.60;;;9.10;99.90;;;;;;514002;231;28214;-73
2023/04/24 01:52:11;;;;;;;2.37;2.00;;;9.30;99.90;;;;;;514046;231;28428;-73
2023/04/24 01:54:12;;;;;;;2.00;1.90;;;9.30;99.90;;;;;;514028;231;28407;-74
2023/04/24 01:56:13;;;;;;;3.43;2.13;;;9.30;99.90;;;;;;514056;231;28031;-73
2023/04/24 01:58:15;;;;;;;3.53;1.90;;;9.10;99.90;;;;;;514048;231;27770;-73
2023/04/24 02:00:16;;;;;;;3.30;2.30;;;9.00;99.90;;;;;;514076;231;27796;-73
2023/04/24 02:02:17;;;;;;;3.37;2.03;;;9.00;99.90;;;;;;514055;231;27614;-73
2023/04/24 02:04:18;;;;;;;2.40;2.17;;;9.00;99.90;;;;;;514032;231;27972;-74
2023/04/24 02:06:19;;;;;;;2.50;2.30;;;9.00;99.90;;;;;;514012;231;27391;-71
2023/04/24 02:08:21;;;;;;;3.10;2.57;;;9.00;99.90;;;;;;514011;231;27822;-73
2023/04/24 02:10:22;;;;;;;2.20;2.00;;;9.00;99.90;;;;;;514028;231;27853;-73
2023/04/24 02:12:23;;;;;;;2.27;2.07;;;9.00;99.90;;;;;;514039;231;27725;-73
2023/04/24 02:14:25;;;;;;;2.40;2.20;;;9.00;99.90;;;;;;513984;231;28171;-75
2023/04/24 02:16:26;;;;;;;2.30;2.20;;;9.00;99.90;;;;;;514056;231;27793;-73
2023/04/24 02:18:27;;;;;;;2.43;2.33;;;9.00;99.90;;;;;;514045;231;27808;-73
2023/04/24 02:20:28;;;;;;;2.90;2.70;;;9.00;99.90;;;;;;514047;231;27871;-73
2023/04/24 02:22:30;;;;;;;2.57;2.37;;;9.00;99.90;;;;;;514005;231;27828;-73
2023/04/24 02:24:31;;;;;;;2.60;2.40;;;8.90;99.90;;;;;;513987;231;29309;-74
2023/04/24 02:26:32;;;;;;;3.13;2.77;;;8.90;99.90;;;;;;514041;231;28430;-73
2023/04/24 02:28:33;;;;;;;3.77;2.43;;;8.80;99.90;;;;;;514053;231;28357;-73
2023/04/24 02:30:35;;;;;;;7.43;3.00;;;8.90;99.90;;;;;;514018;231;28247;-73
2023/04/24 02:32:36;;;;;;;3.60;2.80;;;8.80;99.90;;;;;;514000;231;28287;-72
2023/04/24 02:34:37;;;;;;;3.10;2.80;;;8.80;99.90;;;;;;513994;231;27500;-74
2023/04/24 02:36:38;;;;;;;3.00;2.73;;;8.80;99.90;;;;;;514053;231;27745;-73
2023/04/24 02:38:39;;;;;;;3.37;2.70;;;8.70;99.90;;;;;;514002;231;27481;-74
2023/04/24 02:40:41;;;;;;;2.70;2.50;;;8.70;99.90;;;;;;514020;231;27581;-73
2023/04/24 02:42:42;;;;;;;2.50;2.40;;;8.70;99.90;;;;;;514014;231;27958;-73
2023/04/24 02:44:43;;;;;;;2.30;2.10;;;8.70;99.90;;;;;;513992;231;28033;-75
2023/04/24 02:46:44;;;;;;;2.80;2.60;;;8.80;99.90;;;;;;514034;231;27798;-73
2023/04/24 02:48:46;;;;;;;10.40;3.63;;;8.70;99.90;;;;;;513962;231;27701;-73
2023/04/24 02:50:47;;;;;;;7.00;3.43;;;8.70;99.90;;;;;;513813;231;27835;-73
2023/04/24 02:52:48;;;;;;;9.73;3.40;;;8.70;99.90;;;;;;513987;231;27900;-73
2023/04/24 02:54:49;;;;;;;5.73;3.33;;;8.70;99.90;;;;;;513997;231;27797;-74
2023/04/24 02:56:51;;;;;;;5.23;2.73;;;8.70;99.90;;;;;;514022;231;27757;-73
2023/04/24 02:58:52;;;;;;;4.13;2.87;;;8.80;99.90;;;;;;513977;231;28046;-73
2023/04/24 03:00:53;;;;;;;6.60;3.03;;;8.70;99.90;;;;;;513978;231;27908;-73
2023/04/24 03:02:54;;;;;;;3.10;2.50;;;8.60;99.90;;;;;;514001;231;28294;-72
2023/04/24 03:04:56;;;;;;;6.23;3.67;;;8.60;99.90;;;;;;513988;231;28296;-75
2023/04/24 03:06:57;;;;;;;7.17;3.20;;;8.60;99.90;;;;;;513982;231;28443;-73
2023/04/24 03:08:58;;;;;;;3.20;2.90;;;8.50;99.90;;;;;;514004;231;28197;-73
2023/04/24 03:10:59;;;;;;;3.23;2.60;;;8.40;99.90;;;;;;514014;231;28254;-72
2023/04/24 03:13:01;;;;;;;4.27;2.80;;;8.40;99.90;;;;;;514022;231;27825;-73
2023/04/24 03:15:02;;;;;;;3.27;2.97;;;8.30;99.90;;;;;;513962;231;27960;-75
2023/04/24 03:17:03;;;;;;;3.27;3.07;;;8.30;99.90;;;;;;514041;231;27913;-73
2023/04/24 03:19:04;;;;;;;3.43;2.90;;;8.20;99.90;;;;;;514017;231;27958;-73
2023/04/24 03:21:06;;;;;;;5.30;2.80;;;8.10;99.90;;;;;;514031;231;27899;-73
2023/04/24 03:23:07;;;;;;;3.70;2.97;;;8.10;99.90;;;;;;514010;231;27813;-73
2023/04/24 03:25:09;;;;;;;3.10;2.80;;;8.00;99.90;;;;;;514001;231;27968;-73
2023/04/24 03:27:09;;;;;;;3.23;2.97;;;7.90;99.90;;;;;;514031;231;27882;-73
2023/04/24 03:29:11;;;;;;;3.00;2.73;;;7.90;99.90;;;;;;514024;231;27833;-73
2023/04/24 03:31:12;;;;;;;3.80;3.50;;;7.90;99.90;;;;;;513967;231;27908;-73
2023/04/24 03:33:13;;;;;;;4.40;3.60;;;7.90;99.90;;;;;;514043;231;27892;-73
2023/04/24 03:35:14;;;;;;;5.90;3.63;;;7.90;99.90;;;;;;513769;231;27888;-73
2023/04/24 03:37:16;;;;;;;5.83;4.13;;;7.90;99.90;;;;;;514010;231;27666;-72
2023/04/24 03:39:17;;;;;;;4.57;4.17;;;8.00;99.90;;;;;;513991;231;27920;-73
2023/04/24 03:41:18;;;;;;;3.87;3.57;;;8.00;99.90;;;;;;514035;231;28558;-75
2023/04/24 03:43:19;;;;;;;5.33;4.40;;;8.00;99.90;;;;;;514052;231;28278;-73
2023/04/24 03:45:21;;;;;;;4.80;3.33;;;8.00;99.90;;;;;;513996;231;28291;-73
2023/04/24 03:47:22;;;;;;;4.40;3.60;;;8.00;99.90;;;;;;514002;231;28380;-73
2023/04/24 03:49:23;;;;;;;3.33;3.13;;;8.00;99.90;;;;;;513996;231;28585;-73
2023/04/24 03:51:25;;;;;;;4.40;4.00;;;7.90;99.90;;;;;;514019;231;28382;-74
2023/04/24 03:53:26;;;;;;;3.73;3.40;;;7.90;99.90;;;;;;514045;231;27838;-72
2023/04/24 03:55:27;;;;;;;3.80;3.50;;;7.90;99.90;;;;;;513972;231;27875;-73
2023/04/24 03:57:28;;;;;;;4.63;3.57;;;8.00;99.90;;;;;;514032;231;27790;-73
2023/04/24 03:59:29;;;;;;;4.27;3.87;;;7.90;99.90;;;;;;513994;231;28028;-73
2023/04/24 04:01:31;;;;;;;6.03;3.60;;;8.00;99.90;;;;;;514055;231;27798;-73
2023/04/24 04:03:32;;;;;;;3.50;3.23;;;8.00;99.90;;;;;;514060;231;27780;-73
2023/04/24 04:05:33;;;;;;;4.93;4.03;;;8.10;99.90;;;;;;513984;231;27841;-73
2023/04/24 04:07:34;;;;;;;4.07;3.67;;;8.10;99.90;;;;;;513937;231;27841;-73
2023/04/24 04:09:36;;;;;;;4.20;3.80;;;8.10;99.90;;;;;;514045;231;27798;-73
2023/04/24 04:11:37;;;;;;;5.00;4.50;;;8.10;99.90;;;;;;514023;231;27808;-73
2023/04/24 04:13:38;;;;;;;4.07;3.77;;;8.10;99.90;;;;;;514024;231;27811;-73
2023/04/24 04:15:40;;;;;;;6.07;3.77;;;8.10;99.90;;;;;;513958;231;27831;-73
2023/04/24 04:17:41;;;;;;;4.53;4.10;;;8.20;99.90;;;;;;513829;231;27893;-73
2023/04/24 04:19:42;;;;;;;4.73;4.10;;;8.10;99.90;;;;;;513988;231;27825;-73
2023/04/24 04:21:45;;;;;;;4.70;4.30;;;8.00;99.90;;;;;;513997;231;28333;-73
2023/04/24 04:23:45;;;;;;;5.83;5.00;;;8.00;99.90;;;;;;513912;231;28305;-73
2023/04/24 04:25:46;;;;;;;4.57;4.10;;;8.00;99.90;;;;;;513975;231;28523;-73
2023/04/24 04:27:50;;;;;;;9.00;5.03;;;8.10;99.90;;;;;;513881;231;28337;-72
2023/04/24 04:29:48;;;;;;;5.53;4.23;;;8.00;99.90;;;;;;513810;231;28320;-73
2023/04/24 04:31:49;;;;;;;10.23;5.60;;;7.90;99.90;;;;;;514069;231;27769;-74
2023/04/24 04:33:51;;;;;;;8.60;5.07;;;8.00;99.90;;;;;;514073;231;27789;-73
2023/04/24 04:35:52;;;;;;;8.03;5.10;;;8.00;99.90;;;;;;513968;231;27839;-73
2023/04/24 04:37:53;;;;;;;8.50;4.70;;;8.00;99.90;;;;;;514039;231;28411;-73
2023/04/24 04:39:54;;;;;;;7.80;5.40;;;8.00;99.90;;;;;;513988;231;27533;-73
2023/04/24 04:41:56;;;;;;;6.60;5.17;;;8.10;99.90;;;;;;513996;231;27821;-74
2023/04/24 04:43:58;;;;;;;5.60;5.10;;;8.10;99.90;;;;;;514014;231;27872;-73
2023/04/24 04:45:58;;;;;;;7.90;4.93;;;8.10;99.90;;;;;;513846;231;27719;-73
2023/04/24 04:48:00;;;;;;;6.10;5.40;;;8.10;99.90;;;;;;514037;231;27884;-72
2023/04/24 04:50:01;;;;;;;10.20;5.50;;;8.10;99.90;;;;;;514002;231;27895;-72
2023/04/24 04:52:02;;;;;;;5.00;4.60;;;8.10;99.90;;;;;;514057;231;28018;-73
2023/04/24 04:54:03;;;;;;;7.80;6.10;;;8.10;99.90;;;;;;514046;231;27868;-73
2023/04/24 04:56:04;;;;;;;8.10;5.40;;;8.10;99.90;;;;;;513994;231;27822;-72
2023/04/24 04:58:06;;;;;;;8.30;6.10;;;8.00;99.90;;;;;;514048;231;28242;-72
2023/04/24 05:00:10;;;;;;;6.17;5.57;;;8.10;99.90;;;;;;514069;231;28297;-73
2023/04/24 05:02:08;;;;;;;8.10;6.50;;;8.10;99.90;;;;;;513842;231;28312;-74
2023/04/24 05:04:09;;;;;;;10.97;5.53;;;8.00;99.90;;;;;;514014;231;28273;-73
2023/04/24 05:06:11;;;;;;;6.63;6.03;;;8.00;99.90;;;;;;513974;231;28300;-73
2023/04/24 05:08:12;;;;;;;8.93;6.40;;;8.00;99.90;;;;;;514044;231;27386;-73
2023/04/24 05:10:13;;;;;;;10.23;6.10;;;8.10;99.90;;;;;;514028;231;27811;-73
2023/04/24 05:12:14;;;;;;;7.53;5.70;;;8.00;99.90;;;;;;514067;231;27858;-74
2023/04/24 05:14:17;;;;;;;6.47;5.57;;;8.10;99.90;;;;;;514006;231;27657;-73
2023/04/24 05:16:17;;;;;;;5.87;5.33;;;8.10;99.90;;;;;;513823;231;27653;-73
2023/04/24 05:18:18;;;;;;;5.53;4.93;;;8.20;99.90;;;;;;514020;231;27650;-73
2023/04/24 05:20:19;;;;;;;6.10;5.50;;;8.20;99.90;;;;;;513984;231;27698;-73
2023/04/24 05:22:21;;;;;;;7.70;5.50;;;8.20;99.90;;;;;;514075;231;28307;-75
2023/04/24 05:24:22;;;;;;;6.53;4.93;;;8.20;99.90;;;;;;514001;231;27693;-72
2023/04/24 05:26:23;;;;;;;6.50;5.33;;;8.20;99.90;;;;;;514060;231;27793;-73
2023/04/24 05:28:28;;;;;;;7.30;6.27;;;8.20;99.90;;;;;;514032;231;27445;-73
2023/04/24 05:30:26;;;;;;;6.93;6.30;;;8.20;99.90;;;;;;513785;231;27853;-73
2023/04/24 05:32:27;;;;;;;5.63;5.13;;;8.10;99.90;;;;;;514060;231;28419;-73
2023/04/24 05:34:28;;;;;;;6.13;5.20;;;8.10;99.90;;;;;;514001;231;28234;-73
2023/04/24 05:36:30;;;;;;;5.90;5.17;;;8.20;99.90;;;;;;514046;231;28322;-73
2023/04/24 05:38:31;;;;;;;8.80;6.13;;;8.00;99.90;;;;;;513986;231;28322;-72
2023/04/24 05:40:32;;;;;;;7.33;5.87;;;8.00;99.90;;;;;;514031;231;28261;-73
2023/04/24 05:42:33;;;;;;;6.17;5.57;;;8.00;99.90;;;;;;514075;231;27854;-74
2023/04/24 05:44:35;;;;;;;7.20;5.33;;;8.00;99.90;;;;;;514009;231;27976;-73
2023/04/24 05:46:36;;;;;;;5.53;5.03;;;8.00;99.90;;;;;;514050;231;27549;-73
2023/04/24 05:48:37;;;;;;;4.93;4.43;;;8.10;99.90;;;;;;513993;231;27659;-73
2023/04/24 05:50:38;;;;;;;5.20;4.70;;;8.10;99.90;;;;;;513962;231;28196;-73
2023/04/24 05:52:39;;;;;;;4.40;4.00;;;8.00;99.90;;;;;;514081;231;27718;-74
2023/04/24 05:54:41;;;;;;;4.47;4.07;;;8.10;99.90;;;;;;513974;231;27940;-73
2023/04/24 05:56:42;;;;;;;6.00;4.37;;;8.10;99.90;;;;;;514050;231;27907;-74
2023/04/24 05:58:43;;;;;;;3.93;3.50;;;8.10;99.90;;;;;;514041;231;27841;-73
2023/04/24 06:00:46;;;;;;;4.50;4.10;;;8.10;99.90;;;;;;513871;231;28004;-73
2023/04/24 06:02:46;;;;;;;5.57;4.47;;;8.20;99.90;;;;;;513994;231;28174;-75
2023/04/24 06:04:47;;;;;;;4.53;4.13;;;8.20;99.90;;;;;;513928;231;27783;-73
2023/04/24 06:06:50;;;;;;;4.93;4.07;;;8.10;99.90;;;;;;514049;231;27802;-73
2023/04/24 06:08:49;;;;;;;4.03;3.60;;;8.10;99.90;;;;;;513883;231;27854;-73
2023/04/24 06:10:51;;;;;;;4.43;3.87;;;8.20;99.90;;;;;;514034;231;27681;-73
2023/04/24 06:12:52;;;;;;;5.20;4.63;;;8.30;99.90;;;;;;514071;231;28172;-74
2023/04/24 06:14:55;;;;;;;4.50;4.07;;;8.30;99.90;;;;;;513976;231;27959;-73
2023/04/24 06:16:54;;;;;;;4.57;4.13;;;8.20;99.90;;;;;;513928;231;28550;-73
2023/04/24 06:18:56;;;;;;;3.73;3.40;;;8.20;99.90;;;;;;514012;231;27994;-73
2023/04/24 06:20:57;;;;;;;5.40;3.83;;;8.30;99.90;;;;;;514041;231;28302;-73
2023/04/24 06:22:58;;;;;;;6.40;4.10;;;8.40;99.90;;;;;;514028;231;27912;-74
2023/04/24 06:25:00;;;;;;;4.77;4.33;;;8.50;99.90;;;;;;513955;231;27331;-73
2023/04/24 06:27:01;;;;;;;4.60;3.50;;;8.50;99.90;;;;;;514055;231;27818;-74
2023/04/24 06:29:02;;;;;;;5.10;4.27;;;8.60;99.90;;;;;;514016;231;27776;-72
2023/04/24 06:31:03;;;;;;;5.03;4.10;;;8.60;99.90;;;;;;514048;231;27936;-73
2023/04/24 06:33:04;;;;;;;5.00;4.50;;;8.40;99.90;;;;;;514057;231;27798;-74
2023/04/24 06:35:07;;;;;;;4.20;3.40;;;8.50;99.90;;;;;;514002;231;27678;-73
2023/04/24 06:37:07;;;;;;;4.07;3.40;;;8.50;99.90;;;;;;513949;231;27841;-73
2023/04/24 06:39:08;;;;;;;4.23;3.83;;;8.50;99.90;;;;;;514039;231;27879;-73
2023/04/24 06:41:09;;;;;;;3.97;3.57;;;8.60;99.90;;;;;;514072;231;27701;-73
2023/04/24 06:43:11;;;;;;;3.50;3.20;;;8.80;99.90;;;;;;514059;231;27783;-75
2023/04/24 06:45:12;;;;;;;4.00;3.60;;;8.90;99.90;;;;;;513985;231;27705;-73
2023/04/24 06:47:16;;;;;;;4.03;3.63;;;9.00;99.90;;;;;;514036;231;27981;-73
2023/04/24 06:49:17;;;;;;;3.83;3.53;;;9.00;99.90;;;;;;514033;231;28389;-71
2023/04/24 06:51:19;;;;;;;4.07;3.33;;;8.90;99.90;;;;;;514002;231;28325;-73
2023/04/24 06:53:20;;;;;;;3.83;3.53;;;8.90;99.90;;;;;;514041;231;27933;-73
2023/04/24 06:55:21;;;;;;;3.83;3.53;;;8.90;99.90;;;;;;513975;231;28503;-74
2023/04/24 06:57:22;;;;;;;11.20;3.67;;;8.70;99.90;;;;;;514048;231;28423;-72
2023/04/24 06:59:24;;;;;;;4.30;3.90;;;8.50;99.90;;;;;;514014;231;27911;-72
2023/04/24 07:01:25;;;;;;;4.80;4.23;;;8.30;99.90;;;;;;514022;231;27809;-73
2023/04/24 07:03:26;;;;;;;4.40;3.80;;;8.40;99.90;;;;;;514041;231;27816;-73
2023/04/24 07:05:28;;;;;;;4.03;3.47;;;8.40;99.90;;;;;;513997;231;27817;-73
2023/04/24 07:07:29;;;;;;;4.60;3.93;;;8.60;99.90;;;;;;514032;231;27528;-73
2023/04/24 07:09:30;;;;;;;4.20;3.80;;;8.60;99.90;;;;;;514004;231;27815;-73
2023/04/24 07:11:31;;;;;;;4.30;3.80;;;8.60;99.90;;;;;;514033;231;27798;-73
2023/04/24 07:13:35;;;;;;;4.70;3.70;;;8.80;99.90;;;;;;514086;231;27670;-73
2023/04/24 07:15:34;;;;;;;5.10;3.90;;;8.90;99.90;;;;;;513795;231;27914;-74
2023/04/24 07:17:35;;;;;;;4.17;3.80;;;9.00;99.90;;;;;;514047;231;28008;-73
2023/04/24 07:19:36;;;;;;;4.17;3.80;;;8.90;99.90;;;;;;514016;231;27772;-73
2023/04/24 07:21:37;;;;;;;4.73;3.80;;;8.70;99.90;;;;;;514048;231;27777;-73
2023/04/24 07:23:41;;;;;;;4.37;3.97;;;8.60;99.90;;;;;;514051;231;27772;-72
2023/04/24 07:25:40;;;;;;;5.10;3.70;;;8.60;99.90;;;;;;513829;231;27985;-73
2023/04/24 07:27:41;;;;;;;5.43;3.53;;;8.70;99.90;;;;;;514055;231;27871;-73
2023/04/24 07:29:42;;;;;;;4.53;3.70;;;8.80;99.90;;;;;;514044;231;28504;-74
2023/04/24 07:31:44;;;;;;;4.17;3.77;;;8.60;99.90;;;;;;514029;231;28967;-73
2023/04/24 07:33:45;;;;;;;4.50;3.80;;;8.40;99.90;;;;;;514066;231;28640;-73
2023/04/24 07:35:46;;;;;;;5.00;3.90;;;8.50;99.90;;;;;;513843;231;28401;-73
2023/04/24 07:37:47;;;;;;;4.27;3.87;;;8.60;99.90;;;;;;514038;231;27827;-72
2023/04/24 07:39:49;;;;;;;4.53;4.03;;;8.80;99.90;;;;;;514009;231;27642;-73
2023/04/24 07:41:50;;;;;;;4.27;3.70;;;8.90;99.90;;;;;;514038;231;27730;-73
2023/04/24 07:43:53;;;;;;;4.50;3.80;;;8.80;99.90;;;;;;514028;231;27904;-73
2023/04/24 07:45:52;;;;;;;8.17;4.20;;;8.80;99.90;;;;;;513813;231;27845;-74
2023/04/24 07:47:54;;;;;;;5.20;4.10;;;8.70;99.90;;;;;;514022;231;27691;-73
2023/04/24 07:49:55;;;;;;;5.63;3.80;;;8.70;99.90;;;;;;514025;231;27952;-73
2023/04/24 07:51:56;;;;;;;3.60;3.30;;;8.80;99.90;;;;;;514060;231;27826;-73
2023/04/24 07:53:57;;;;;;;4.70;3.67;;;8.80;99.90;;;;;;514063;231;27568;-73
2023/04/24 07:55:59;;;;;;;4.10;3.30;;;8.60;99.90;;;;;;514010;231;27467;-74
2023/04/24 07:58:00;;;;;;;3.50;3.20;;;8.60;99.90;;;;;;514013;231;27887;-73
2023/04/24 08:00:01;;;;;;;3.40;3.10;;;8.50;99.90;;;;;;514005;231;27950;-73
2023/04/24 08:02:02;;;;;;;3.67;3.33;;;8.60;99.90;;;;;;514019;231;27757;-73
2023/04/24 08:04:04;;;;;;;4.80;3.50;;;8.80;99.90;;;;;;514039;231;27556;-73
2023/04/24 08:06:05;;;;;;;5.80;3.57;;;8.90;99.90;;;;;;513990;231;28671;-74
2023/04/24 08:08:06;;;;;;;3.63;3.33;;;8.80;99.90;;;;;;514005;231;28282;-73
2023/04/24 08:10:07;;;;;;;8.37;3.80;;;8.80;99.90;;;;;;514006;231;28339;-74
2023/04/24 08:12:09;;;;;;;3.93;3.53;;;8.80;99.90;;;;;;514021;231;28342;-72
2023/04/24 08:14:12;;;;;;;4.70;3.30;;;8.80;99.90;;;;;;514003;231;28198;-73
2023/04/24 08:16:11;;;;;;;3.90;3.50;;;8.70;99.90;;;;;;513827;231;27811;-74
2023/04/24 08:18:13;;;;;;;5.50;3.70;;;8.70;99.90;;;;;;514023;231;27972;-73
2023/04/24 08:20:13;;;;;;;4.23;3.70;;;8.60;99.90;;;;;;514011;231;27817;-74
2023/04/24 08:22:15;;;;;;;3.80;3.47;;;8.50;99.90;;;;;;513837;231;27923;-72
2023/04/24 08:24:16;;;;;;;4.03;3.50;;;8.50;99.90;;;;;;513981;231;27917;-73
2023/04/24 08:26:17;;;;;;;5.30;3.93;;;8.40;99.90;;;;;;513987;231;27698;-74
2023/04/24 08:28:20;;;;;;;7.73;4.10;;;8.30;99.90;;;;;;514059;231;27802;-73
2023/04/24 08:30:20;;;;;;;7.70;4.00;;;8.30;99.90;;;;;;513949;231;27518;-74
2023/04/24 08:32:21;;;;;;;5.33;4.43;;;8.30;99.90;;;;;;514058;231;27554;-73
2023/04/24 08:34:22;;;;;;;5.00;3.63;;;8.40;99.90;;;;;;513994;231;27961;-73
2023/04/24 08:36:23;;;;;;;4.60;4.10;;;8.30;99.90;;;;;;514116;231;28149;-74
2023/04/24 08:38:25;;;;;;;5.23;3.77;;;8.40;99.90;;;;;;514062;231;27546;-73
2023/04/24 08:40:26;;;;;;;4.73;3.80;;;8.40;99.90;;;;;;514005;231;27807;-73
2023/04/24 08:42:27;;;;;;;5.83;4.40;;;8.60;99.90;;;;;;514054;231;27786;-72
2023/04/24 08:44:28;;;;;;;4.63;3.40;;;8.90;99.90;;;;;;513940;231;28580;-73
2023/04/24 08:46:30;;;;;;;4.20;3.77;;;9.20;99.90;;;;;;514033;231;28287;-74
2023/04/24 08:48:31;;;;;;;4.63;4.13;;;9.50;99.90;;;;;;514067;231;28202;-73
2023/04/24 08:50:32;;;;;;;6.20;4.50;;;9.50;99.90;;;;;;514063;231;28339;-72
2023/04/24 08:52:34;;;;;;;9.00;4.70;;;9.40;99.90;;;;;;514051;231;28385;-73
2023/04/24 08:54:35;;;;;;;4.43;4.03;;;9.40;99.90;;;;;;513985;231;28378;-72
2023/04/24 08:56:37;;;;;;;5.07;4.57;;;9.30;99.90;;;;;;514012;231;27815;-74
2023/04/24 08:58:37;;;;;;;5.87;4.23;;;9.20;99.90;;;;;;514014;231;27756;-73
2023/04/24 09:00:38;;;;;;;6.63;4.33;;;9.30;99.90;;;;;;514039;231;27669;-73
2023/04/24 09:02:40;;;;;;;6.50;5.83;;;9.30;99.90;;;;;;514018;231;27939;-73
2023/04/24 09:04:41;;;;;;;10.47;5.00;;;9.60;99.90;;;;;;513968;231;27835;-73
2023/04/24 09:06:42;;;;;;;5.87;4.60;;;9.60;99.90;;;;;;514067;231;28107;-74
2023/04/24 09:08:43;;;;;;;5.97;4.80;;;9.60;99.90;;;;;;514046;231;27901;-73
2023/04/24 09:10:45;;;;;;;6.47;4.90;;;9.60;99.90;;;;;;513965;231;27954;-73
2023/04/24 09:12:46;;;;;;;6.90;4.90;;;9.50;99.90;;;;;;514049;231;27918;-73
2023/04/24 09:14:47;;;;;;;7.13;5.43;;;9.30;99.90;;;;;;513998;231;27953;-73
2023/04/24 09:16:48;;;;;;;5.70;4.63;;;9.20;99.90;;;;;;514063;231;27853;-75
2023/04/24 09:18:50;;;;;;;6.70;5.60;;;9.00;99.90;;;;;;514070;231;28003;-73
2023/04/24 09:20:51;;;;;;;5.67;4.63;;;8.90;99.90;;;;;;514054;231;27925;-74
2023/04/24 09:22:52;;;;;;;7.40;5.50;;;8.80;99.90;;;;;;514027;231;28247;-73
2023/04/24 09:24:53;;;;;;;7.83;5.30;;;8.70;99.90;;;;;;513965;231;28306;-73
2023/04/24 09:26:55;;;;;;;9.23;6.47;;;8.60;99.90;;;;;;513509;231;35757;-74
2023/04/24 09:28:56;;;;;;;6.43;5.27;;;8.60;99.90;;;;;;514040;231;27956;-73
2023/04/24 09:30:57;;;;;;;6.37;5.30;;;8.50;99.90;;;;;;514055;231;28352;-73
2023/04/24 09:32:58;;;;;;;8.80;6.20;;;8.40;99.90;;;;;;514038;231;27434;-72
2023/04/24 09:35:00;;;;;;;6.33;5.00;;;8.40;99.90;;;;;;513983;231;27570;-73
2023/04/24 09:37:01;;;;;;;6.00;5.40;;;8.60;99.90;;;;;;514077;231;27830;-74
2023/04/24 09:39:02;;;;;;;7.30;5.63;;;8.90;99.90;;;;;;514001;231;27757;-73
2023/04/24 09:41:03;;;;;;;8.23;5.77;;;9.00;99.90;;;;;;514026;231;27600;-73
2023/04/24 09:43:05;;;;;;;4.93;4.43;;;9.30;99.90;;;;;;514022;231;27693;-73
2023/04/24 09:45:06;;;;;;;6.93;5.30;;;9.40;99.90;;;;;;513956;231;27725;-73
2023/04/24 09:47:07;;;;;;;5.77;5.03;;;9.30;99.90;;;;;;514057;231;27838;-74
2023/04/24 09:49:09;;;;;;;8.17;5.70;;;9.40;99.90;;;;;;514022;231;28380;-73
2023/04/24 09:51:15;;;;;;;7.13;5.67;;;9.30;99.90;;;;;;513966;231;28390;-74
2023/04/24 09:53:14;;;;;;;6.67;5.50;;;9.20;99.90;;;;;;513924;231;28099;-73
2023/04/24 09:55:16;;;;;;;6.03;5.43;;;9.20;99.90;;;;;;513956;231;28206;-72
2023/04/24 09:57:16;;;;;;;7.57;5.93;;;9.20;99.90;;;;;;514046;231;28313;-73
2023/04/24 09:59:18;;;;;;;6.90;6.07;;;9.20;99.90;;;;;;513997;231;27463;-73
2023/04/24 10:01:19;;;;;;;7.13;5.80;;;9.30;99.90;;;;;;514040;231;27849;-73
2023/04/24 10:03:20;;;;;;;7.17;5.60;;;9.20;99.90;;;;;;513992;231;27715;-73
2023/04/24 10:05:21;;;;;;;7.07;6.33;;;9.10;99.90;;;;;;513898;231;27617;-73
2023/04/24 10:07:23;;;;;;;10.00;6.60;;;9.10;99.90;;;;;;514000;231;27906;-73
2023/04/24 10:09:24;;;;;;;8.47;6.87;;;9.00;99.90;;;;;;514009;231;27843;-74
2023/04/24 10:11:25;;;;;;;7.27;6.33;;;9.00;99.90;;;;;;513998;231;27930;-73
2023/04/24 10:13:26;;;;;;;7.17;5.83;;;8.90;99.90;;;;;;513997;231;27949;-73
2023/04/24 10:15:28;;;;;;;8.53;6.67;;;8.90;99.90;;;;;;513925;231;28210;-72
2023/04/24 10:17:29;;;;;;;7.23;6.10;;;8.80;99.90;;;;;;513941;231;27957;-73
2023/04/24 10:19:30;;;;;;;7.87;6.33;;;8.90;99.90;;;;;;514033;231;27828;-74
2023/04/24 10:21:31;;;;;;;6.80;5.83;;;8.80;99.90;;;;;;514025;231;27784;-73
2023/04/24 10:23:33;;;;;;;6.90;6.10;;;8.90;99.90;;;;;;514073;231;27826;-73
2023/04/24 10:25:34;;;;;;;7.47;6.27;;;8.90;99.90;;;;;;514008;231;27868;-73
2023/04/24 10:27:35;;;;;;;9.67;7.67;;;8.90;99.90;;;;;;514068;231;28378;-73
2023/04/24 10:29:36;;;;;;;8.10;6.63;;;8.80;99.90;;;;;;514064;231;28331;-73
2023/04/24 10:31:38;;;;;;;8.50;6.70;;;8.70;99.90;;;;;;514094;231;28246;-73
2023/04/24 10:33:41;;;;;;;9.60;6.53;;;8.80;99.90;;;;;;514075;231;28381;-73
2023/04/24 10:35:40;;;;;;;9.23;7.50;;;8.90;99.90;;;;;;513845;231;28242;-74
2023/04/24 10:37:41;;;;;;;10.33;7.40;;;9.10;99.90;;;;;;514023;231;27759;-73